Mitchell, IN (47446)

7:48 AM EST on February 14, 2016 (GMT -0500)
Carter Addition | | Change Station
CLOSE
Current Station
Personal Weather Station
Location: Mitchell, IN
Elevation: 625 ft
Nearby Weather Stations
Active Advisory: Winter Weather Advisory

Elev 625 ft 38.74 °N, 86.47 °W | Updated 2 minutes ago

Snow
Snow
17.2 °F
Feels Like 7 °F
N
7.4
Wind Variable Wind from NNE
Gusts 9.6 mph

Today
High -- | Low -- °F
--% Chance of Precip.
Yesterday
High -- | Low -- °F
Precip. -- in
Pressure 30.39 in
Visibility 2.5 miles
Clouds Overcast 2800 ft
Windchill 7 °F
Dew Point 11 °F
Humidity 76%
Rainfall 0.00 in
Snow Depth Not available.
7:38 AM 6:22 PM
Waxing Crescent, 41% visible
SPECI KBMG 141244Z 14008KT 2 1/2SM -SN OVC028 M09/M13 A3039 RMK AO2 SNB08 P0000 T10891133
Pressure 30.39 in
Visibility 2.5 miles
Clouds Overcast 2800 ft
Windchill 7 °F
Dew Point 11 °F
Humidity 76%
Rainfall 0.00 in
Snow Depth Not available.
7:38 AM 6:22 PM
Waxing Crescent, 41% visible
SPECI KBMG 141244Z 14008KT 2 1/2SM -SN OVC028 M09/M13 A3039 RMK AO2 SNB08 P0000 T10891133

10-Day Weather Forecast

Almanac

Astronomy

Feb. 14, 2016 Rise Set
Actual Time
Civil Twilight
Nautical Twilight
Astronomical Twilight
Moon
Length of Visible Light
Length of Day
Tomorrow will be .
, % of the Moon is Illuminated

Today's Extremes

State Highs State Lows

Community

WunderPhotos

Upload Photos

1,892,775 photos uploaded!

WunderBlog® & News

Nearby

Air Quality

  Air Quality AQ Index Pollutant
Not available.

Snow Depth

Station Depth Elevation

Earthquake Activity

City Distance Mag. Time & Date
Minimum magnitude displayed is 2.5.

Coastal Water Temperatures

Place Temperature

Stations

Nearby Weather Stations

Station Location Temp. Windchill Dew Point Humidity Wind Precip. Elev Updated Type
                   

Watches & Warnings

Winter Weather Advisory
Issued: 3:30 AM EST Feb. 14, 2016 – National Weather Service

... Winter Weather Advisory remains in effect from 8 am this
morning to midnight EST tonight...

* timing... snow developing by mid morning Sunday and continuing
the rest of the day and gradually diminishing Sunday night.

* Main impact... snow covered roads and poor travel conditions.
Snow accumulations of up to three inches are possible.

Precautionary/preparedness actions...

A Winter Weather Advisory for snow means that periods of snow
will cause primarily travel difficulties. Be prepared for snow
covered roads and limited visibilities... and use caution while
driving.